sensor_id;sensor_type;location;lat;lon;timestamp;pressure;altitude;pressure_sealevel;temperature;humidity
37852;BME280;23691;52.486;4.650;2023-03-12T00:02:10;101133.63;;;3.73;70.63
37852;BME280;23691;52.486;4.650;2023-03-12T00:04:35;101130.00;;;3.74;70.64
37852;BME280;23691;52.486;4.650;2023-03-12T00:07:02;101131.69;;;3.75;70.53
37852;BME280;23691;52.486;4.650;2023-03-12T00:09:33;101129.06;;;3.75;70.66
37852;BME280;23691;52.486;4.650;2023-03-12T00:11:58;101130.97;;;3.73;70.49
37852;BME280;23691;52.486;4.650;2023-03-12T00:14:24;101115.31;;;3.70;70.63
37852;BME280;23691;52.486;4.650;2023-03-12T00:16:49;101108.22;;;3.70;70.56
37852;BME280;23691;52.486;4.650;2023-03-12T00:19:14;101109.91;;;3.71;70.50
37852;BME280;23691;52.486;4.650;2023-03-12T00:21:40;101097.53;;;3.72;70.38
37852;BME280;23691;52.486;4.650;2023-03-12T00:24:06;101094.00;;;3.71;70.77
37852;BME280;23691;52.486;4.650;2023-03-12T00:26:31;101093.19;;;3.71;70.85
37852;BME280;23691;52.486;4.650;2023-03-12T00:28:57;101090.63;;;3.69;70.64
37852;BME280;23691;52.486;4.650;2023-03-12T00:31:25;101080.19;;;3.68;70.76
37852;BME280;23691;52.486;4.650;2023-03-12T00:33:52;101082.84;;;3.68;70.43
37852;BME280;23691;52.486;4.650;2023-03-12T00:36:19;101083.91;;;3.65;70.56
37852;BME280;23691;52.486;4.650;2023-03-12T00:38:46;101084.84;;;3.64;70.76
37852;BME280;23691;52.486;4.650;2023-03-12T00:41:11;101084.00;;;3.63;70.49
37852;BME280;23691;52.486;4.650;2023-03-12T00:43:37;101088.47;;;3.63;70.76
37852;BME280;23691;52.486;4.650;2023-03-12T00:46:02;101087.50;;;3.64;70.78
37852;BME280;23691;52.486;4.650;2023-03-12T00:48:28;101089.28;;;3.63;70.88
37852;BME280;23691;52.486;4.650;2023-03-12T00:50:53;101078.63;;;3.65;70.63
37852;BME280;23691;52.486;4.650;2023-03-12T00:53:18;101075.00;;;3.66;70.75
37852;BME280;23691;52.486;4.650;2023-03-12T00:55:44;101076.69;;;3.67;70.76
37852;BME280;23691;52.486;4.650;2023-03-12T00:58:09;101076.56;;;3.69;70.69
37852;BME280;23691;52.486;4.650;2023-03-12T01:00:34;101079.22;;;3.69;70.74
37852;BME280;23691;52.486;4.650;2023-03-12T01:03:00;101077.41;;;3.69;70.38
37852;BME280;23691;52.486;4.650;2023-03-12T01:05:25;101073.81;;;3.70;70.54
37852;BME280;23691;52.486;4.650;2023-03-12T01:07:51;101071.19;;;3.70;70.51
37852;BME280;23691;52.486;4.650;2023-03-12T01:10:18;101067.44;;;3.73;70.35
37852;BME280;23691;52.486;4.650;2023-03-12T01:12:44;101067.34;;;3.74;70.10
37852;BME280;23691;52.486;4.650;2023-03-12T01:15:12;101061.09;;;3.75;69.99
37852;BME280;23691;52.486;4.650;2023-03-12T01:17:38;101063.72;;;3.75;69.99
37852;BME280;23691;52.486;4.650;2023-03-12T01:20:04;101054.13;;;3.74;69.89
37852;BME280;23691;52.486;4.650;2023-03-12T01:22:30;101045.31;;;3.74;69.77
37852;BME280;23691;52.486;4.650;2023-03-12T01:24:55;101047.84;;;3.75;69.76
37852;BME280;23691;52.486;4.650;2023-03-12T01:27:20;101047.84;;;3.75;69.11
37852;BME280;23691;52.486;4.650;2023-03-12T01:29:46;101046.88;;;3.76;68.96
37852;BME280;23691;52.486;4.650;2023-03-12T01:32:11;101038.72;;;3.79;68.82
37852;BME280;23691;52.486;4.650;2023-03-12T01:34:37;101043.06;;;3.80;68.67
37852;BME280;23691;52.486;4.650;2023-03-12T01:37:02;101037.03;;;3.78;68.51
37852;BME280;23691;52.486;4.650;2023-03-12T01:39:27;101030.91;;;3.78;68.15
37852;BME280;23691;52.486;4.650;2023-03-12T01:41:53;101039.81;;;3.77;67.82
37852;BME280;23691;52.486;4.650;2023-03-12T01:44:18;101029.22;;;3.77;67.75
37852;BME280;23691;52.486;4.650;2023-03-12T01:46:44;101026.44;;;3.78;67.42
37852;BME280;23691;52.486;4.650;2023-03-12T01:49:26;101021.03;;;3.80;67.21
37852;BME280;23691;52.486;4.650;2023-03-12T01:54:30;101015.00;;;3.78;67.25
37852;BME280;23691;52.486;4.650;2023-03-12T01:56:58;101015.84;;;3.78;66.85
37852;BME280;23691;52.486;4.650;2023-03-12T01:59:32;101017.56;;;3.79;66.97
37852;BME280;23691;52.486;4.650;2023-03-12T02:02:01;101011.19;;;3.82;66.54
37852;BME280;23691;52.486;4.650;2023-03-12T02:04:27;101013.09;;;3.80;66.70
37852;BME280;23691;52.486;4.650;2023-03-12T02:07:07;101017.56;;;3.79;66.71
37852;BME280;23691;52.486;4.650;2023-03-12T02:09:33;101009.13;;;3.74;66.66
37852;BME280;23691;52.486;4.650;2023-03-12T02:12:00;100996.97;;;3.72;66.67
37852;BME280;23691;52.486;4.650;2023-03-12T02:14:25;100993.13;;;3.76;66.56
37852;BME280;23691;52.486;4.650;2023-03-12T02:16:52;100982.41;;;3.77;66.44
37852;BME280;23691;52.486;4.650;2023-03-12T02:22:16;100961.25;;;3.77;66.76
37852;BME280;23691;52.486;4.650;2023-03-12T02:24:56;100966.28;;;3.80;66.44
37852;BME280;23691;52.486;4.650;2023-03-12T02:27:26;100964.38;;;3.82;66.43
37852;BME280;23691;52.486;4.650;2023-03-12T02:29:51;100954.63;;;3.83;66.92
37852;BME280;23691;52.486;4.650;2023-03-12T02:32:22;100940.31;;;3.85;66.75
37852;BME280;23691;52.486;4.650;2023-03-12T02:34:48;100934.91;;;3.87;66.75
37852;BME280;23691;52.486;4.650;2023-03-12T02:37:15;100938.50;;;3.86;66.55
37852;BME280;23691;52.486;4.650;2023-03-12T02:39:41;100940.06;;;3.88;66.70
37852;BME280;23691;52.486;4.650;2023-03-12T02:42:08;100938.28;;;3.89;66.70
37852;BME280;23691;52.486;4.650;2023-03-12T02:44:34;100928.53;;;3.90;66.51
37852;BME280;23691;52.486;4.650;2023-03-12T02:47:02;100926.63;;;3.92;66.99
37852;BME280;23691;52.486;4.650;2023-03-12T02:49:30;100919.63;;;3.91;66.87
37852;BME280;23691;52.486;4.650;2023-03-12T02:51:56;100915.31;;;3.90;67.17
37852;BME280;23691;52.486;4.650;2023-03-12T02:54:22;100908.44;;;3.87;66.97
37852;BME280;23691;52.486;4.650;2023-03-12T02:56:48;100898.59;;;3.89;67.15
37852;BME280;23691;52.486;4.650;2023-03-12T02:59:14;100900.25;;;3.90;67.30
37852;BME280;23691;52.486;4.650;2023-03-12T03:01:39;100900.00;;;3.93;67.30
37852;BME280;23691;52.486;4.650;2023-03-12T03:04:07;100895.34;;;3.97;67.25
37852;BME280;23691;52.486;4.650;2023-03-12T03:06:34;100889.31;;;3.95;67.19
37852;BME280;23691;52.486;4.650;2023-03-12T03:09:00;100885.69;;;3.96;66.92
37852;BME280;23691;52.486;4.650;2023-03-12T03:11:26;100876.81;;;3.97;67.16
37852;BME280;23691;52.486;4.650;2023-03-12T03:13:53;100872.34;;;3.97;67.18
37852;BME280;23691;52.486;4.650;2023-03-12T03:16:19;100871.38;;;3.98;66.82
37852;BME280;23691;52.486;4.650;2023-03-12T03:18:44;100869.59;;;3.99;66.96
37852;BME280;23691;52.486;4.650;2023-03-12T03:21:10;100859.09;;;3.97;66.56
37852;BME280;23691;52.486;4.650;2023-03-12T03:23:44;100862.69;;;3.96;66.65
37852;BME280;23691;52.486;4.650;2023-03-12T03:26:10;100844.06;;;3.98;66.94
37852;BME280;23691;52.486;4.650;2023-03-12T03:28:35;100825.53;;;3.98;66.57
37852;BME280;23691;52.486;4.650;2023-03-12T03:31:01;100837.94;;;3.97;67.03
37852;BME280;23691;52.486;4.650;2023-03-12T03:33:28;100837.94;;;3.97;66.80
37852;BME280;23691;52.486;4.650;2023-03-12T03:35:55;100842.38;;;3.97;66.83
37852;BME280;23691;52.486;4.650;2023-03-12T03:38:22;100838.88;;;3.96;66.81
37852;BME280;23691;52.486;4.650;2023-03-12T03:40:47;100835.28;;;3.97;66.40
37852;BME280;23691;52.486;4.650;2023-03-12T03:43:13;100828.69;;;3.92;66.60
37852;BME280;23691;52.486;4.650;2023-03-12T03:45:38;100835.66;;;3.93;66.63
37852;BME280;23691;52.486;4.650;2023-03-12T03:48:04;100837.22;;;3.95;66.16
37852;BME280;23691;52.486;4.650;2023-03-12T03:50:29;100829.16;;;3.97;66.47
37852;BME280;23691;52.486;4.650;2023-03-12T03:52:55;100835.75;;;3.91;66.45
37852;BME280;23691;52.486;4.650;2023-03-12T03:55:21;100834.91;;;3.91;66.20
37852;BME280;23691;52.486;4.650;2023-03-12T03:57:46;100828.91;;;3.88;66.75
37852;BME280;23691;52.486;4.650;2023-03-12T04:00:12;100826.16;;;3.90;66.50
37852;BME280;23691;52.486;4.650;2023-03-12T04:02:40;100815.56;;;3.90;66.41
37852;BME280;23691;52.486;4.650;2023-03-12T04:05:05;100805.69;;;3.92;66.67
37852;BME280;23691;52.486;4.650;2023-03-12T04:07:31;100814.34;;;3.94;66.91
37852;BME280;23691;52.486;4.650;2023-03-12T04:09:57;100816.03;;;3.95;66.63
37852;BME280;23691;52.486;4.650;2023-03-12T04:12:22;100821.31;;;3.95;67.10
37852;BME280;23691;52.486;4.650;2023-03-12T04:14:51;100815.19;;;3.95;66.85
37852;BME280;23691;52.486;4.650;2023-03-12T04:17:17;100810.00;;;3.93;66.70
37852;BME280;23691;52.486;4.650;2023-03-12T04:19:43;100802.91;;;3.94;66.86
37852;BME280;23691;52.486;4.650;2023-03-12T04:22:08;100801.22;;;3.93;66.95
37852;BME280;23691;52.486;4.650;2023-03-12T04:24:33;100787.16;;;3.92;67.28
37852;BME280;23691;52.486;4.650;2023-03-12T04:26:59;100776.09;;;3.87;67.58
37852;BME280;23691;52.486;4.650;2023-03-12T04:29:24;100771.75;;;3.86;67.99
37852;BME280;23691;52.486;4.650;2023-03-12T04:31:50;100777.06;;;3.86;68.40
37852;BME280;23691;52.486;4.650;2023-03-12T04:34:15;100768.28;;;3.85;68.74
37852;BME280;23691;52.486;4.650;2023-03-12T04:36:41;100762.97;;;3.85;69.23
37852;BME280;23691;52.486;4.650;2023-03-12T04:39:06;100755.75;;;3.87;69.40
37852;BME280;23691;52.486;4.650;2023-03-12T04:41:33;100746.00;;;3.88;69.52
37852;BME280;23691;52.486;4.650;2023-03-12T04:43:58;100743.09;;;3.91;69.49
37852;BME280;23691;52.486;4.650;2023-03-12T04:46:24;100740.09;;;3.96;69.96
37852;BME280;23691;52.486;4.650;2023-03-12T04:48:49;100731.31;;;3.95;69.97
37852;BME280;23691;52.486;4.650;2023-03-12T04:51:14;100727.84;;;3.95;70.15
37852;BME280;23691;52.486;4.650;2023-03-12T04:53:40;100725.91;;;3.97;70.15
37852;BME280;23691;52.486;4.650;2023-03-12T04:56:05;100721.34;;;3.99;70.42
37852;BME280;23691;52.486;4.650;2023-03-12T04:58:31;100726.75;;;3.97;70.77
37852;BME280;23691;52.486;4.650;2023-03-12T05:00:56;100735.53;;;3.98;70.84
37852;BME280;23691;52.486;4.650;2023-03-12T05:03:22;100721.34;;;3.99;70.94
37852;BME280;23691;52.486;4.650;2023-03-12T05:05:47;100721.44;;;3.97;71.20
37852;BME280;23691;52.486;4.650;2023-03-12T05:08:13;100713.63;;;3.96;71.72
37852;BME280;23691;52.486;4.650;2023-03-12T05:10:38;100713.63;;;3.96;71.71
37852;BME280;23691;52.486;4.650;2023-03-12T05:13:12;100707.97;;;4.00;71.43
37852;BME280;23691;52.486;4.650;2023-03-12T05:15:37;100701.84;;;4.00;71.67
37852;BME280;23691;52.486;4.650;2023-03-12T05:18:03;100689.44;;;4.00;71.75
37852;BME280;23691;52.486;4.650;2023-03-12T05:20:28;100700.16;;;3.99;72.15
37852;BME280;23691;52.486;4.650;2023-03-12T05:22:53;100695.69;;;3.99;72.29
37852;BME280;23691;52.486;4.650;2023-03-12T05:25:19;100698.34;;;3.99;72.51
37852;BME280;23691;52.486;4.650;2023-03-12T05:27:44;100694.72;;;4.00;72.53
37852;BME280;23691;52.486;4.650;2023-03-12T05:30:10;100698.34;;;3.99;72.52
37852;BME280;23691;52.486;4.650;2023-03-12T05:32:35;100692.78;;;4.02;72.93
37852;BME280;23691;52.486;4.650;2023-03-12T05:35:00;100683.03;;;4.03;72.69
37852;BME280;23691;52.486;4.650;2023-03-12T05:37:26;100681.22;;;4.03;73.28
37852;BME280;23691;52.486;4.650;2023-03-12T05:39:53;100688.47;;;4.01;73.22
37852;BME280;23691;52.486;4.650;2023-03-12T05:42:18;100684.28;;;3.99;73.40
37852;BME280;23691;52.486;4.650;2023-03-12T05:44:43;100690.41;;;3.99;73.44
37852;BME280;23691;52.486;4.650;2023-03-12T05:47:09;100689.44;;;4.00;74.04
37852;BME280;23691;52.486;4.650;2023-03-12T05:49:34;100688.47;;;4.01;73.89
37852;BME280;23691;52.486;4.650;2023-03-12T05:52:00;100694.59;;;4.02;74.33
37852;BME280;23691;52.486;4.650;2023-03-12T05:54:26;100689.31;;;4.02;74.47
37852;BME280;23691;52.486;4.650;2023-03-12T05:56:51;100693.16;;;3.98;74.42
37852;BME280;23691;52.486;4.650;2023-03-12T05:59:17;100685.22;;;3.98;74.66
37852;BME280;23691;52.486;4.650;2023-03-12T06:01:42;100684.28;;;3.99;74.58
37852;BME280;23691;52.486;4.650;2023-03-12T06:04:08;100685.84;;;4.01;74.89
37852;BME280;23691;52.486;4.650;2023-03-12T06:06:35;100677.88;;;4.01;74.87
37852;BME280;23691;52.486;4.650;2023-03-12T06:09:02;100676.91;;;4.02;75.24
37852;BME280;23691;52.486;4.650;2023-03-12T06:11:28;100650.56;;;4.01;75.17
37852;BME280;23691;52.486;4.650;2023-03-12T06:13:55;100667.41;;;4.00;75.55
37852;BME280;23691;52.486;4.650;2023-03-12T06:16:23;100674.63;;;3.98;75.93
37852;BME280;23691;52.486;4.650;2023-03-12T06:18:51;100679.22;;;3.96;76.33
37852;BME280;23691;52.486;4.650;2023-03-12T06:21:20;100664.56;;;3.92;76.49
37852;BME280;23691;52.486;4.650;2023-03-12T06:23:47;100669.97;;;3.90;76.60
37852;BME280;23691;52.486;4.650;2023-03-12T06:26:13;100675.28;;;3.90;77.21
37852;BME280;23691;52.486;4.650;2023-03-12T06:28:39;100671.91;;;3.88;77.42
37852;BME280;23691;52.486;4.650;2023-03-12T06:31:04;100676.09;;;3.91;77.72
37852;BME280;23691;52.486;4.650;2023-03-12T06:33:30;100659.28;;;3.92;77.95
37852;BME280;23691;52.486;4.650;2023-03-12T06:35:58;100662.88;;;3.91;78.27
37852;BME280;23691;52.486;4.650;2023-03-12T06:38:24;100659.00;;;3.95;78.44
37852;BME280;23691;52.486;4.650;2023-03-12T06:40:57;100644.56;;;3.99;78.23
37852;BME280;23691;52.486;4.650;2023-03-12T06:43:23;100649.97;;;3.97;78.22
37852;BME280;23691;52.486;4.650;2023-03-12T06:45:49;100638.19;;;4.01;78.75
37852;BME280;23691;52.486;4.650;2023-03-12T06:48:15;100631.63;;;4.05;78.61
37852;BME280;23691;52.486;4.650;2023-03-12T06:50:40;100635.28;;;4.04;78.69
37852;BME280;23691;52.486;4.650;2023-03-12T06:53:06;100629.72;;;4.07;78.96
37852;BME280;23691;52.486;4.650;2023-03-12T06:55:31;100629.59;;;4.09;79.05
37852;BME280;23691;52.486;4.650;2023-03-12T06:57:57;100623.19;;;4.12;78.97
37852;BME280;23691;52.486;4.650;2023-03-12T07:00:22;100621.97;;;4.16;79.08
37852;BME280;23691;52.486;4.650;2023-03-12T07:02:47;100627.50;;;4.13;79.13
37852;BME280;23691;52.486;4.650;2023-03-12T07:05:13;100623.91;;;4.14;79.62
37852;BME280;23691;52.486;4.650;2023-03-12T07:07:38;100629.22;;;4.14;79.61
37852;BME280;23691;52.486;4.650;2023-03-12T07:10:04;100646.66;;;4.16;79.52
37852;BME280;23691;52.486;4.650;2023-03-12T07:12:31;100650.41;;;4.14;79.80
37852;BME280;23691;52.486;4.650;2023-03-12T07:14:57;100640.63;;;4.14;80.04
37852;BME280;23691;52.486;4.650;2023-03-12T07:17:23;100646.78;;;4.15;80.12
37852;BME280;23691;52.486;4.650;2023-03-12T07:19:49;100650.13;;;4.17;80.63
37852;BME280;23691;52.486;4.650;2023-03-12T07:22:15;100647.50;;;4.17;80.55
37852;BME280;23691;52.486;4.650;2023-03-12T07:24:40;100648.44;;;4.16;81.06
37852;BME280;23691;52.486;4.650;2023-03-12T07:27:05;100644.84;;;4.17;81.54
37852;BME280;23691;52.486;4.650;2023-03-12T07:29:31;100640.94;;;4.21;81.31
37852;BME280;23691;52.486;4.650;2023-03-12T07:31:56;100651.44;;;4.22;81.60
37852;BME280;23691;52.486;4.650;2023-03-12T07:34:22;100651.03;;;4.27;81.46
37852;BME280;23691;52.486;4.650;2023-03-12T07:36:47;100654.97;;;4.33;81.44
37852;BME280;23691;52.486;4.650;2023-03-12T07:39:12;100649.44;;;4.36;81.44
37852;BME280;23691;52.486;4.650;2023-03-12T07:41:38;100658.06;;;4.38;81.45
37852;BME280;23691;52.486;4.650;2023-03-12T07:44:04;100641.22;;;4.39;82.08
37852;BME280;23691;52.486;4.650;2023-03-12T07:46:29;100634.84;;;4.41;82.01
37852;BME280;23691;52.486;4.650;2023-03-12T07:48:55;100629.00;;;4.47;82.21
37852;BME280;23691;52.486;4.650;2023-03-12T07:51:20;100633.91;;;4.52;82.26
37852;BME280;23691;52.486;4.650;2023-03-12T07:53:45;100625.69;;;4.55;82.39
37852;BME280;23691;52.486;4.650;2023-03-12T07:56:11;100634.63;;;4.54;82.53
37852;BME280;23691;52.486;4.650;2023-03-12T07:58:36;100645.22;;;4.54;82.86
37852;BME280;23691;52.486;4.650;2023-03-12T08:01:03;100641.34;;;4.58;83.12
37852;BME280;23691;52.486;4.650;2023-03-12T08:03:29;100649.03;;;4.61;82.98
37852;BME280;23691;52.486;4.650;2023-03-12T08:05:59;100643.63;;;4.63;83.27
37852;BME280;23691;52.486;4.650;2023-03-12T08:08:25;100644.31;;;4.65;83.45
37852;BME280;23691;52.486;4.650;2023-03-12T08:10:51;100632.34;;;4.70;83.68
37852;BME280;23691;52.486;4.650;2023-03-12T08:13:17;100631.25;;;4.73;83.64
37852;BME280;23691;52.486;4.650;2023-03-12T08:15:43;100629.31;;;4.75;83.98
37852;BME280;23691;52.486;4.650;2023-03-12T08:18:09;100635.75;;;4.82;84.41
37852;BME280;23691;52.486;4.650;2023-03-12T08:20:34;100628.94;;;4.89;84.25
37852;BME280;23691;52.486;4.650;2023-03-12T08:23:00;100628.53;;;4.94;84.51
37852;BME280;23691;52.486;4.650;2023-03-12T08:25:25;100627.59;;;4.95;84.88
37852;BME280;23691;52.486;4.650;2023-03-12T08:27:51;100624.53;;;5.00;84.91
37852;BME280;23691;52.486;4.650;2023-03-12T08:30:16;100618.56;;;5.07;85.03
37852;BME280;23691;52.486;4.650;2023-03-12T08:32:42;100635.88;;;5.11;85.31
37852;BME280;23691;52.486;4.650;2023-03-12T08:35:07;100634.75;;;5.14;85.35
37852;BME280;23691;52.486;4.650;2023-03-12T08:37:39;100632.81;;;5.16;85.46
37852;BME280;23691;52.486;4.650;2023-03-12T08:40:06;100629.63;;;5.22;85.73
37852;BME280;23691;52.486;4.650;2023-03-12T08:42:42;100632.31;;;5.32;85.85
37852;BME280;23691;52.486;4.650;2023-03-12T08:45:10;100638.31;;;5.44;86.00
37852;BME280;23691;52.486;4.650;2023-03-12T08:47:36;100628.00;;;5.50;85.96
37852;BME280;23691;52.486;4.650;2023-03-12T08:50:03;100634.47;;;5.57;86.08
37852;BME280;23691;52.486;4.650;2023-03-12T08:52:29;100640.19;;;5.63;86.16
37852;BME280;23691;52.486;4.650;2023-03-12T08:54:54;100636.84;;;5.70;86.49
37852;BME280;23691;52.486;4.650;2023-03-12T08:57:20;100643.00;;;5.80;86.35
37852;BME280;23691;52.486;4.650;2023-03-12T08:59:45;100644.13;;;5.88;86.75
37852;BME280;23691;52.486;4.650;2023-03-12T09:02:11;100640.81;;;5.95;86.84
37852;BME280;23691;52.486;4.650;2023-03-12T09:04:37;100645.97;;;6.07;87.34
37852;BME280;23691;52.486;4.650;2023-03-12T09:07:02;100640.38;;;6.19;87.62
37852;BME280;23691;52.486;4.650;2023-03-12T09:09:28;100634.94;;;6.31;87.79
37852;BME280;23691;52.486;4.650;2023-03-12T09:11:53;100636.59;;;6.41;88.07
37852;BME280;23691;52.486;4.650;2023-03-12T09:14:19;100640.91;;;6.52;88.38
37852;BME280;23691;52.486;4.650;2023-03-12T09:16:44;100648.84;;;6.62;88.48
37852;BME280;23691;52.486;4.650;2023-03-12T09:19:10;100644.38;;;6.72;88.74
37852;BME280;23691;52.486;4.650;2023-03-12T09:21:35;100645.16;;;6.82;89.12
37852;BME280;23691;52.486;4.650;2023-03-12T09:24:00;100645.66;;;6.96;89.74
37852;BME280;23691;52.486;4.650;2023-03-12T09:26:26;100647.72;;;7.12;89.70
37852;BME280;23691;52.486;4.650;2023-03-12T09:28:51;100653.66;;;7.23;90.43
37852;BME280;23691;52.486;4.650;2023-03-12T09:31:17;100650.13;;;7.32;90.59
37852;BME280;23691;52.486;4.650;2023-03-12T09:34:15;100645.59;;;7.43;91.22
37852;BME280;23691;52.486;4.650;2023-03-12T09:37:00;100651.03;;;7.51;91.60
37852;BME280;23691;52.486;4.650;2023-03-12T09:39:25;100649.28;;;7.60;91.41
37852;BME280;23691;52.486;4.650;2023-03-12T09:41:50;100651.72;;;7.71;91.74
37852;BME280;23691;52.486;4.650;2023-03-12T09:44:56;100654.03;;;7.84;91.88
37852;BME280;23691;52.486;4.650;2023-03-12T09:47:32;100651.66;;;7.99;92.06
37852;BME280;23691;52.486;4.650;2023-03-12T09:50:07;100655.31;;;8.15;91.88
37852;BME280;23691;52.486;4.650;2023-03-12T09:52:50;100645.19;;;8.37;92.01
37852;BME280;23691;52.486;4.650;2023-03-12T09:55:20;100648.97;;;8.52;91.71
37852;BME280;23691;52.486;4.650;2023-03-12T09:57:50;100642.53;;;8.63;91.77
37852;BME280;23691;52.486;4.650;2023-03-12T10:00:21;100637.47;;;8.78;91.93
37852;BME280;23691;52.486;4.650;2023-03-12T10:07:47;100629.44;;;9.46;91.53
37852;BME280;23691;52.486;4.650;2023-03-12T10:10:26;100635.66;;;9.55;91.38
37852;BME280;23691;52.486;4.650;2023-03-12T10:13:46;100624.28;;;9.61;90.82
37852;BME280;23691;52.486;4.650;2023-03-12T10:16:25;100628.81;;;9.61;90.60
37852;BME280;23691;52.486;4.650;2023-03-12T10:19:22;100636.81;;;9.69;90.48
37852;BME280;23691;52.486;4.650;2023-03-12T10:27:24;100639.03;;;9.98;87.63
37852;BME280;23691;52.486;4.650;2023-03-12T10:29:52;100633.03;;;10.13;87.21
37852;BME280;23691;52.486;4.650;2023-03-12T10:39:47;100647.63;;;10.35;85.94
37852;BME280;23691;52.486;4.650;2023-03-12T10:42:16;100651.09;;;10.43;85.50
37852;BME280;23691;52.486;4.650;2023-03-12T10:44:42;100661.31;;;10.40;84.78
37852;BME280;23691;52.486;4.650;2023-03-12T10:47:27;100653.44;;;10.38;85.20
37852;BME280;23691;52.486;4.650;2023-03-12T10:50:01;100660.31;;;10.41;84.73
37852;BME280;23691;52.486;4.650;2023-03-12T10:52:35;100677.22;;;10.41;83.97
37852;BME280;23691;52.486;4.650;2023-03-12T10:55:30;100679.69;;;10.43;83.54
37852;BME280;23691;52.486;4.650;2023-03-12T10:57:56;100684.56;;;10.47;83.05
37852;BME280;23691;52.486;4.650;2023-03-12T11:00:24;100672.69;;;10.42;82.36
37852;BME280;23691;52.486;4.650;2023-03-12T11:03:19;100684.06;;;10.44;82.26
37852;BME280;23691;52.486;4.650;2023-03-12T11:05:51;100699.09;;;10.53;82.58
37852;BME280;23691;52.486;4.650;2023-03-12T11:08:31;100677.84;;;10.68;81.84
37852;BME280;23691;52.486;4.650;2023-03-12T11:10:59;100699.91;;;10.70;81.57
37852;BME280;23691;52.486;4.650;2023-03-12T11:13:30;100694.06;;;10.74;80.80
37852;BME280;23691;52.486;4.650;2023-03-12T11:15:58;100695.53;;;10.85;80.72
37852;BME280;23691;52.486;4.650;2023-03-12T11:18:35;100695.03;;;10.98;80.48
37852;BME280;23691;52.486;4.650;2023-03-12T11:26:28;100686.22;;;11.29;79.60
37852;BME280;23691;52.486;4.650;2023-03-12T11:29:02;100672.69;;;11.30;78.70
37852;BME280;23691;52.486;4.650;2023-03-12T11:31:34;100664.28;;;11.33;78.69
37852;BME280;23691;52.486;4.650;2023-03-12T11:34:07;100661.78;;;11.32;78.10
37852;BME280;23691;52.486;4.650;2023-03-12T11:39:19;100664.13;;;11.66;77.57
37852;BME280;23691;52.486;4.650;2023-03-12T11:45:15;100664.19;;;11.58;76.74
37852;BME280;23691;52.486;4.650;2023-03-12T11:47:54;100672.06;;;11.51;76.49
37852;BME280;23691;52.486;4.650;2023-03-12T11:53:25;100644.72;;;11.64;76.55
37852;BME280;23691;52.486;4.650;2023-03-12T11:59:18;100647.88;;;11.68;76.30
37852;BME280;23691;52.486;4.650;2023-03-12T12:04:41;100646.22;;;11.67;75.82
37852;BME280;23691;52.486;4.650;2023-03-12T12:15:46;100610.97;;;11.78;75.71
37852;BME280;23691;52.486;4.650;2023-03-12T12:18:50;100627.97;;;11.93;75.46
37852;BME280;23691;52.486;4.650;2023-03-12T12:24:04;100613.31;;;12.04;75.11
37852;BME280;23691;52.486;4.650;2023-03-12T12:31:56;100626.84;;;11.88;74.31
37852;BME280;23691;52.486;4.650;2023-03-12T12:40:19;100613.94;;;11.83;74.43
37852;BME280;23691;52.486;4.650;2023-03-12T12:45:20;100614.66;;;11.77;74.82
37852;BME280;23691;52.486;4.650;2023-03-12T12:47:52;100602.09;;;11.77;74.65
37852;BME280;23691;52.486;4.650;2023-03-12T12:50:21;100604.94;;;11.76;74.73
37852;BME280;23691;52.486;4.650;2023-03-12T12:52:55;100604.41;;;11.80;74.51
37852;BME280;23691;52.486;4.650;2023-03-12T12:55:49;100605.44;;;11.79;74.62
37852;BME280;23691;52.486;4.650;2023-03-12T12:58:25;100612.00;;;11.77;74.69
37852;BME280;23691;52.486;4.650;2023-03-12T13:00:58;100609.00;;;11.72;74.70
37852;BME280;23691;52.486;4.650;2023-03-12T13:03:26;100603.69;;;11.64;74.98
37852;BME280;23691;52.486;4.650;2023-03-12T13:08:34;100596.75;;;11.46;75.01
37852;BME280;23691;52.486;4.650;2023-03-12T13:13:49;100599.41;;;11.23;75.46
37852;BME280;23691;52.486;4.650;2023-03-12T13:16:41;100606.09;;;11.27;75.54
37852;BME280;23691;52.486;4.650;2023-03-12T13:24:28;100597.94;;;11.44;75.14
37852;BME280;23691;52.486;4.650;2023-03-12T13:27:15;100613.22;;;11.66;74.89
37852;BME280;23691;52.486;4.650;2023-03-12T13:29:43;100628.53;;;11.80;74.24
37852;BME280;23691;52.486;4.650;2023-03-12T13:38:00;100610.22;;;11.92;73.41
37852;BME280;23691;52.486;4.650;2023-03-12T13:45:28;100621.16;;;11.82;73.02
37852;BME280;23691;52.486;4.650;2023-03-12T13:48:00;100640.09;;;11.81;72.54
37852;BME280;23691;52.486;4.650;2023-03-12T13:50:27;100638.22;;;11.90;72.33
37852;BME280;23691;52.486;4.650;2023-03-12T13:53:31;100646.78;;;12.08;72.40
37852;BME280;23691;52.486;4.650;2023-03-12T13:56:01;100646.47;;;12.11;71.93
37852;BME280;23691;52.486;4.650;2023-03-12T13:58:29;100665.09;;;12.05;71.61
37852;BME280;23691;52.486;4.650;2023-03-12T14:03:30;100643.13;;;11.78;72.20
37852;BME280;23691;52.486;4.650;2023-03-12T14:06:21;100650.81;;;11.81;72.49
37852;BME280;23691;52.486;4.650;2023-03-12T14:09:45;100663.78;;;11.69;72.60
37852;BME280;23691;52.486;4.650;2023-03-12T14:12:19;100671.56;;;11.56;72.83
37852;BME280;23691;52.486;4.650;2023-03-12T14:15:04;100672.44;;;11.48;73.19
37852;BME280;23691;52.486;4.650;2023-03-12T14:17:33;100682.88;;;11.35;73.40
37852;BME280;23691;52.486;4.650;2023-03-12T14:22:32;100676.75;;;11.10;74.17
37852;BME280;23691;52.486;4.650;2023-03-12T14:27:50;100680.09;;;11.20;74.36
37852;BME280;23691;52.486;4.650;2023-03-12T14:30:22;100694.09;;;11.30;74.22
37852;BME280;23691;52.486;4.650;2023-03-12T14:32:54;100686.84;;;11.39;74.14
37852;BME280;23691;52.486;4.650;2023-03-12T14:35:41;100680.47;;;11.48;73.85
37852;BME280;23691;52.486;4.650;2023-03-12T14:38:24;100694.88;;;11.47;73.61
37852;BME280;23691;52.486;4.650;2023-03-12T14:40:54;100688.19;;;11.43;73.45
37852;BME280;23691;52.486;4.650;2023-03-12T14:43:29;100669.06;;;11.54;73.70
37852;BME280;23691;52.486;4.650;2023-03-12T14:46:12;100653.59;;;11.65;73.29